Broadus, MT (59317)

9:17 AM MDT on April 28, 2017 (GMT -0600)
Cinch Buckle | | Change Station

Elev 3114 ft 45.49 °N, 104.98 °W | Updated 10 seconds ago

Overcast
Overcast
42.4 °F
Feels Like 40 °F
N
4.5
Wind Variable Wind from North
Gusts 4.9 mph

Today
High -- | Low -- °F
--% Chance of Precip.
Yesterday
High -- | Low -- °F
Precip. -- in
Pressure 29.87 in
Visibility 7.0 miles
Clouds Mostly Cloudy 1500 ft
Overcast 2500 ft
Windchill 40 °F
Dew Point 28 °F
Humidity 56%
Rainfall 0.00 in
Snow Depth Not available.
5:54 AM 8:04 PM
Waxing Crescent, 7% visible
METAR KW43 281455Z AUTO 08012G19KT 7SM BKN015 OVC025 01/M01 A2987 RMK AO2
Pressure 29.87 in
Visibility 7.0 miles
Clouds Mostly Cloudy 1500 ft
Overcast 2500 ft
Windchill 40 °F
Dew Point 28 °F
Humidity 56%
Rainfall 0.00 in
Snow Depth Not available.
5:54 AM 8:04 PM
Waxing Crescent, 7% visible
METAR KW43 281455Z AUTO 08012G19KT 7SM BKN015 OVC025 01/M01 A2987 RMK AO2

Get Severe Weather Alerts

Thanks for signing up!

Be on the lookout for a verification email in your inbox.

You'll start receiving the daily forecast at 8 AM.

×

10-Day Weather Forecast

Almanac

Astronomy

Apr. 28, 2017 Rise Set
Actual Time
Civil Twilight
Nautical Twilight
Astronomical Twilight
Moon
Length of Visible Light
Length of Day
Tomorrow will be .
, % of the Moon is Illuminated

Today's Extremes

State Highs State Lows

Community

WunderPhotos

WunderBlog® & News

Nearby

Air Quality

  Air Quality AQ Index Pollutant
Not available.

Snow Depth

Station Depth Elevation

Earthquake Activity

City Distance Mag. Time & Date
Minimum magnitude displayed is 2.5.

Coastal Water Temperatures

Place Temperature

Stations

Nearby Weather Stations

Station Location Temp. Windchill Dew Point Humidity Wind Precip. Elev Updated Type
                   

Watches & Warnings

There are currently no watches in effect.